Terminal Aerodrome Forecast
Issued by NWS St Louis, MO

Home | Current Version | Previous Version | Text Only | Print | Product List | Glossary On
Versions: 1 2 3 4 5 6 7 8 9 10 11 12 13 14 15 16 17 18 19 20 21 22 23 24 25 26 27 28 29 30 31
000
FTUS43 KLSX 272100 AAB
TAFSTL
TAF AMD
KSTL 272107Z 2721/2824 30012KT P6SM -RA OVC015
      TEMPO 2721/2723 4SM -RA BR SCT015 BKN070
     FM280100 30010KT P6SM SCT025 BKN100
     FM280700 33007KT P6SM BKN250=

USA.gov is the U.S. government's official web portal to all federal, state and local government web resources and services.